createdAt,value
2018-05-21T00:01:44.837Z,17.77
2018-05-21T00:04:12.980Z,17.78
2018-05-21T00:06:41.064Z,17.56
2018-05-21T00:09:09.177Z,17.52
2018-05-21T00:11:37.300Z,17.48
2018-05-21T00:14:05.812Z,17.41
2018-05-21T00:16:34.190Z,17.39
2018-05-21T00:19:02.306Z,17.36
2018-05-21T00:21:30.408Z,17.23
2018-05-21T00:23:58.504Z,17.20
2018-05-21T00:26:26.636Z,17.25
2018-05-21T00:28:54.732Z,17.19
2018-05-21T00:31:23.128Z,17.37
2018-05-21T00:33:51.253Z,17.45
2018-05-21T00:36:19.341Z,17.43
2018-05-21T00:38:47.745Z,17.51
2018-05-21T00:41:15.836Z,17.46
2018-05-21T00:43:43.942Z,17.43
2018-05-21T00:46:12.048Z,17.54
2018-05-21T00:48:40.159Z,17.58
2018-05-21T00:51:08.741Z,17.43
2018-05-21T00:53:37.349Z,17.44
2018-05-21T00:56:05.480Z,17.38
2018-05-21T00:58:33.601Z,17.17
2018-05-21T01:01:01.702Z,17.20
2018-05-21T01:03:29.825Z,17.19
2018-05-21T01:05:57.930Z,17.32
2018-05-21T01:08:26.041Z,17.40
2018-05-21T01:10:54.137Z,17.35
2018-05-21T01:13:22.265Z,17.21
2018-05-21T01:18:24.598Z,17.34
2018-05-21T01:20:52.718Z,17.18
2018-05-21T01:23:20.816Z,16.99
2018-05-21T01:25:48.944Z,16.90
2018-05-21T01:28:22.028Z,16.90
2018-05-21T01:30:50.133Z,16.81
2018-05-21T01:33:18.238Z,16.88
2018-05-21T01:35:46.367Z,16.86
2018-05-21T01:38:14.450Z,16.76
2018-05-21T01:40:42.910Z,16.89
2018-05-21T01:43:11.060Z,16.81
2018-05-21T01:45:39.174Z,16.95
2018-05-21T01:48:08.116Z,17.00
2018-05-21T01:50:36.256Z,16.91
2018-05-21T01:53:04.397Z,16.97
2018-05-21T01:55:32.485Z,16.79
2018-05-21T01:58:00.620Z,16.83
2018-05-21T02:00:29.734Z,16.80
2018-05-21T02:02:57.922Z,16.83
2018-05-21T02:05:26.008Z,16.88
2018-05-21T02:07:55.941Z,16.79
2018-05-21T02:10:24.344Z,16.79
2018-05-21T02:12:52.449Z,16.70
2018-05-21T02:15:20.607Z,16.75
2018-05-21T02:17:48.702Z,16.65
2018-05-21T02:20:16.830Z,16.68
2018-05-21T02:22:44.980Z,16.78
2018-05-21T02:25:13.083Z,16.89
2018-05-21T02:27:41.864Z,16.95
2018-05-21T02:30:10.474Z,17.02
2018-05-21T02:32:39.147Z,16.92
2018-05-21T02:35:07.249Z,17.00
2018-05-21T02:37:35.360Z,16.94
2018-05-21T02:40:03.451Z,16.90
2018-05-21T02:42:36.989Z,16.84
2018-05-21T02:45:05.077Z,16.89
2018-05-21T02:47:33.184Z,16.88
2018-05-21T02:50:01.292Z,16.80
2018-05-21T02:52:29.376Z,16.77
2018-05-21T02:54:57.817Z,16.77
2018-05-21T02:57:25.936Z,16.67
2018-05-21T02:59:54.053Z,16.69
2018-05-21T03:02:22.148Z,16.71
2018-05-21T03:04:50.364Z,16.64
2018-05-21T03:07:18.375Z,16.63
2018-05-21T03:09:46.489Z,16.60
2018-05-21T03:12:14.580Z,16.50
2018-05-21T03:24:27.680Z,16.30
2018-05-21T03:26:56.086Z,16.34
2018-05-21T03:29:24.173Z,16.33
2018-05-21T03:31:52.288Z,16.33
2018-05-21T03:34:21.097Z,16.34
2018-05-21T03:36:49.203Z,16.42
2018-05-21T03:39:17.318Z,16.38
2018-05-21T03:41:45.409Z,16.29
2018-05-21T03:44:13.497Z,16.32
2018-05-21T03:46:41.606Z,16.30
2018-05-21T03:49:09.697Z,16.30
2018-05-21T03:51:37.796Z,16.32
2018-05-21T03:54:05.893Z,16.31
2018-05-21T03:56:33.994Z,16.20
2018-05-21T03:59:13.822Z,16.22
2018-05-21T04:01:53.652Z,16.15
2018-05-21T04:04:21.770Z,16.20
2018-05-21T04:06:49.853Z,16.14
2018-05-21T04:09:17.945Z,16.14
2018-05-21T04:11:46.081Z,16.14
2018-05-21T04:14:14.173Z,16.21
2018-05-21T04:16:42.267Z,16.14
2018-05-21T04:19:10.357Z,16.10
2018-05-21T04:21:44.034Z,16.10
2018-05-21T04:24:12.140Z,16.17
2018-05-21T04:39:40.449Z,16.17
2018-05-21T04:42:08.647Z,16.19
2018-05-21T04:44:36.729Z,16.25
2018-05-21T04:47:04.817Z,16.28
2018-05-21T04:49:32.905Z,16.31
2018-05-21T04:52:01.009Z,16.25
2018-05-21T04:54:29.097Z,16.27
2018-05-21T04:56:57.793Z,16.26
2018-05-21T04:59:25.891Z,16.32
2018-05-21T05:01:53.984Z,16.38
2018-05-21T05:04:22.093Z,16.35
2018-05-21T05:06:50.181Z,16.32
2018-05-21T05:09:18.271Z,16.28
2018-05-21T05:11:46.411Z,16.27
2018-05-21T05:14:14.498Z,16.24
2018-05-21T05:16:42.650Z,16.18
2018-05-21T05:19:10.737Z,16.17
2018-05-21T05:21:38.853Z,16.20
2018-05-21T05:24:06.941Z,16.20
2018-05-21T05:26:35.256Z,16.19
2018-05-21T05:29:03.391Z,16.28
2018-05-21T05:31:31.483Z,16.29
2018-05-21T05:33:59.569Z,16.32
2018-05-21T05:36:27.685Z,16.35
2018-05-21T05:38:55.787Z,16.45
2018-05-21T05:41:23.913Z,16.46
2018-05-21T05:43:52.001Z,16.44
2018-05-21T05:46:20.103Z,16.51
2018-05-21T05:48:48.284Z,16.52
2018-05-21T05:51:16.650Z,16.57
2018-05-21T06:06:46.461Z,16.67
2018-05-21T06:09:14.571Z,16.79
2018-05-21T06:11:42.659Z,16.86
2018-05-21T06:14:10.761Z,16.87
2018-05-21T06:16:38.857Z,16.85
2018-05-21T06:19:09.055Z,16.93
2018-05-21T06:21:37.169Z,16.92
2018-05-21T06:24:05.282Z,17.01
2018-05-21T06:26:33.380Z,17.03
2018-05-21T06:29:01.486Z,17.05
2018-05-21T06:31:29.612Z,17.14
2018-05-21T06:33:57.832Z,17.19
2018-05-21T06:36:26.438Z,17.17
2018-05-21T06:38:54.893Z,17.14
2018-05-21T06:41:22.999Z,17.31
2018-05-21T06:43:51.099Z,17.44
2018-05-21T06:46:24.133Z,17.50
2018-05-21T06:48:52.241Z,17.40
2018-05-21T06:51:20.337Z,17.48
2018-05-21T06:53:48.773Z,17.46
2018-05-21T06:56:16.859Z,17.56
2018-05-21T06:58:44.962Z,17.70
2018-05-21T07:01:13.970Z,17.80
2018-05-21T07:03:42.087Z,17.99
2018-05-21T07:06:10.282Z,18.01
2018-05-21T07:08:38.385Z,18.15
2018-05-21T07:11:06.535Z,18.34
2018-05-21T07:13:34.625Z,18.77
2018-05-21T07:16:02.761Z,19.11
2018-05-21T07:18:30.928Z,18.97
2018-05-21T07:20:59.121Z,18.92
2018-05-21T07:23:27.199Z,18.97
2018-05-21T07:25:55.303Z,18.84
2018-05-21T07:28:23.407Z,18.73
2018-05-21T07:30:51.521Z,19.04
2018-05-21T07:33:19.618Z,18.84
2018-05-21T07:35:47.735Z,18.77
2018-05-21T07:51:15.938Z,18.80
2018-05-21T07:53:43.972Z,18.76
2018-05-21T07:56:12.773Z,18.74
2018-05-21T07:58:40.903Z,18.71
2018-05-21T08:01:09.004Z,18.66
2018-05-21T08:03:37.100Z,18.57
2018-05-21T08:15:50.249Z,18.58
2018-05-21T08:18:18.320Z,18.72
2018-05-21T08:20:46.417Z,18.93
2018-05-21T08:23:14.639Z,19.03
2018-05-21T08:25:43.070Z,19.06
2018-05-21T08:28:11.147Z,19.10
2018-05-21T08:30:39.264Z,19.07
2018-05-21T08:33:07.583Z,19.13
2018-05-21T08:35:35.696Z,19.21
2018-05-21T08:38:03.850Z,19.28
2018-05-21T08:40:31.986Z,19.31
2018-05-21T08:43:00.108Z,19.36
2018-05-21T08:45:28.227Z,19.42
2018-05-21T08:47:56.325Z,19.44
2018-05-21T08:50:24.416Z,19.43
2018-05-21T08:52:52.533Z,19.39
2018-05-21T08:55:20.631Z,19.36
2018-05-21T08:57:48.725Z,19.43
2018-05-21T09:00:16.823Z,19.43
2018-05-21T09:02:49.915Z,19.54
2018-05-21T09:05:18.026Z,19.69
2018-05-21T09:07:46.121Z,19.78
2018-05-21T09:10:14.225Z,19.83
2018-05-21T09:12:42.331Z,19.89
2018-05-21T09:28:10.433Z,19.96
2018-05-21T09:30:38.606Z,20.02
2018-05-21T09:33:06.734Z,20.14
2018-05-21T09:35:34.832Z,20.19
2018-05-21T09:38:03.860Z,20.26
2018-05-21T09:53:32.069Z,20.39
2018-05-21T09:56:00.547Z,20.48
2018-05-21T09:58:28.633Z,20.55
2018-05-21T10:00:56.797Z,20.60
2018-05-21T10:03:25.518Z,20.69
2018-05-21T10:05:53.584Z,20.72
2018-05-21T10:08:21.692Z,20.72
2018-05-21T10:10:50.612Z,20.79
2018-05-21T10:13:18.707Z,20.81
2018-05-21T10:15:46.807Z,20.85
2018-05-21T10:18:14.902Z,20.96
2018-05-21T10:20:42.996Z,21.07
2018-05-21T10:23:11.428Z,21.22
2018-05-21T10:25:40.444Z,21.23
2018-05-21T10:28:08.881Z,21.35
2018-05-21T10:30:37.013Z,21.25
2018-05-21T10:33:05.153Z,21.30
2018-05-21T10:35:33.300Z,21.20
2018-05-21T10:38:01.497Z,21.30
2018-05-21T10:40:29.668Z,21.32
2018-05-21T10:42:57.746Z,21.35
2018-05-21T10:45:25.887Z,21.39
2018-05-21T10:47:54.063Z,21.38
2018-05-21T10:50:22.133Z,21.36
2018-05-21T10:52:50.231Z,21.39
2018-05-21T10:55:19.294Z,21.39
2018-05-21T10:57:53.008Z,21.45
2018-05-21T11:00:21.128Z,21.62
2018-05-21T11:02:54.185Z,21.60
2018-05-21T11:05:22.288Z,21.62
2018-05-21T11:07:50.394Z,21.73
2018-05-21T11:10:18.501Z,21.77
2018-05-21T11:12:46.593Z,21.69
2018-05-21T11:15:14.741Z,21.82
2018-05-21T11:17:42.817Z,21.84
2018-05-21T11:20:10.928Z,21.89
2018-05-21T11:22:39.041Z,21.95
2018-05-21T11:25:07.174Z,21.99
2018-05-21T11:27:35.309Z,22.03
2018-05-21T11:30:03.413Z,22.08
2018-05-21T11:32:31.548Z,22.16
2018-05-21T11:34:59.661Z,22.11
2018-05-21T11:37:27.761Z,22.19
2018-05-21T11:39:55.877Z,22.28
2018-05-21T11:42:24.981Z,22.34
2018-05-21T11:44:53.077Z,22.31
2018-05-21T11:47:21.182Z,22.27
2018-05-21T12:02:55.022Z,22.51
2018-05-21T12:05:23.097Z,22.61
2018-05-21T12:07:51.201Z,22.71
2018-05-21T12:10:19.660Z,22.78
2018-05-21T12:12:47.787Z,22.88
2018-05-21T12:15:16.323Z,22.86
2018-05-21T12:17:44.421Z,22.90
2018-05-21T12:20:12.892Z,23.05
2018-05-21T12:22:40.988Z,23.00
2018-05-21T12:38:09.235Z,23.15
2018-05-21T12:40:37.274Z,23.09
2018-05-21T12:56:05.390Z,23.34
2018-05-21T12:58:33.485Z,23.55
2018-05-21T13:01:01.591Z,23.57
2018-05-21T13:03:29.740Z,23.64
2018-05-21T13:05:58.143Z,23.60
2018-05-21T13:08:26.233Z,23.73
2018-05-21T13:10:54.329Z,23.82
2018-05-21T13:13:22.447Z,23.74
2018-05-21T13:15:50.526Z,23.71
2018-05-21T13:18:18.697Z,23.65
2018-05-21T13:20:46.777Z,23.64
2018-05-21T13:23:15.470Z,23.81
2018-05-21T13:25:43.601Z,23.82
2018-05-21T13:28:11.973Z,23.76
2018-05-21T13:30:40.067Z,23.72
2018-05-21T13:33:08.996Z,23.71
2018-05-21T13:35:37.091Z,23.80
2018-05-21T13:38:05.200Z,23.93
2018-05-21T13:40:33.302Z,23.84
2018-05-21T13:43:01.401Z,23.76
2018-05-21T13:45:35.148Z,23.75
2018-05-21T13:48:03.270Z,23.73
2018-05-21T13:50:31.353Z,23.73
2018-05-21T13:52:59.545Z,23.81
2018-05-21T13:55:27.617Z,23.88
2018-05-21T13:57:56.697Z,23.98
2018-05-21T14:00:24.805Z,24.00
2018-05-21T14:02:52.924Z,24.10
2018-05-21T14:05:21.149Z,24.14
2018-05-21T14:07:49.241Z,24.15
2018-05-21T14:10:17.371Z,24.10
2018-05-21T14:12:45.457Z,24.13
2018-05-21T14:15:13.632Z,24.19
2018-05-21T14:17:41.697Z,24.21
2018-05-21T14:20:10.139Z,24.27
2018-05-21T14:22:38.261Z,24.33
2018-05-21T14:25:06.492Z,24.33
2018-05-21T14:27:35.425Z,24.39
2018-05-21T14:30:03.567Z,24.20
2018-05-21T14:32:31.661Z,24.21
2018-05-21T14:34:59.763Z,24.26
2018-05-21T14:37:27.862Z,24.34
2018-05-21T14:39:55.962Z,24.23
2018-05-21T14:42:24.057Z,24.23
2018-05-21T14:44:52.193Z,24.26
2018-05-21T14:47:20.289Z,24.21
2018-05-21T14:49:48.445Z,24.25
2018-05-21T14:52:16.601Z,24.30
2018-05-21T14:54:45.300Z,24.26
2018-05-21T14:57:13.453Z,24.19
2018-05-21T14:59:41.844Z,24.12
2018-05-21T15:02:09.978Z,24.09
2018-05-21T15:04:38.939Z,24.13
2018-05-21T15:07:07.077Z,24.14
2018-05-21T15:22:35.214Z,24.25
2018-05-21T15:25:03.290Z,24.33
2018-05-21T15:27:31.389Z,24.37
2018-05-21T15:29:59.491Z,24.49
2018-05-21T15:32:27.597Z,24.41
2018-05-21T15:34:56.019Z,24.52
2018-05-21T15:37:24.089Z,24.39
2018-05-21T15:39:52.190Z,24.36
2018-05-21T15:42:20.305Z,24.38
2018-05-21T15:44:53.837Z,24.37
2018-05-21T15:47:21.987Z,24.40
2018-05-21T15:49:50.084Z,24.53
2018-05-21T15:52:18.917Z,24.46
2018-05-21T16:07:47.021Z,24.62
2018-05-21T16:10:15.113Z,24.57
2018-05-21T16:12:43.222Z,24.55
2018-05-21T16:15:16.274Z,24.51
2018-05-21T16:17:44.419Z,24.50
2018-05-21T16:20:12.478Z,24.57
2018-05-21T16:22:40.571Z,24.46
2018-05-21T16:25:08.693Z,24.43
2018-05-21T16:27:36.805Z,24.44
2018-05-21T16:30:04.979Z,24.43
2018-05-21T16:32:33.029Z,24.42
2018-05-21T16:35:01.153Z,24.41
2018-05-21T16:37:30.117Z,24.45
2018-05-21T16:39:58.225Z,24.39
2018-05-21T16:42:27.202Z,24.39
2018-05-21T16:44:55.297Z,24.42
2018-05-21T16:47:23.382Z,24.45
2018-05-21T16:49:51.502Z,24.52
2018-05-21T16:52:25.487Z,24.41
2018-05-21T16:54:53.577Z,24.38
2018-05-21T16:57:21.661Z,24.39
2018-05-21T16:59:49.749Z,24.38
2018-05-21T17:02:17.853Z,24.34
2018-05-21T17:04:46.657Z,24.33
2018-05-21T17:07:14.791Z,24.34
2018-05-21T17:09:42.887Z,24.37
2018-05-21T17:12:11.625Z,24.32
2018-05-21T17:14:39.725Z,24.31
2018-05-21T17:17:07.840Z,24.33
2018-05-21T17:19:35.921Z,24.38
2018-05-21T17:22:04.013Z,24.34
2018-05-21T17:24:32.142Z,24.36
2018-05-21T17:27:00.235Z,24.36
2018-05-21T17:29:28.362Z,24.33
2018-05-21T17:31:56.429Z,24.35
2018-05-21T17:34:26.682Z,24.37
2018-05-21T17:36:54.795Z,24.36
2018-05-21T17:39:27.841Z,24.31
2018-05-21T17:41:56.745Z,24.34
2018-05-21T17:44:25.741Z,24.32
2018-05-21T17:46:54.509Z,24.33
2018-05-21T17:49:22.609Z,24.31
2018-05-21T17:51:50.860Z,24.32
2018-05-21T17:54:18.924Z,24.34
2018-05-21T17:56:47.002Z,24.33
2018-05-21T17:59:15.781Z,24.31
2018-05-21T18:01:44.619Z,24.29
2018-05-21T18:04:12.747Z,24.25
2018-05-21T18:06:40.885Z,24.26
2018-05-21T18:09:08.977Z,24.25
2018-05-21T18:11:37.073Z,24.25
2018-05-21T18:14:05.858Z,24.34
2018-05-21T18:16:33.957Z,24.27
2018-05-21T18:19:02.101Z,24.27
2018-05-21T18:21:30.397Z,24.28
2018-05-21T18:23:58.300Z,24.25
2018-05-21T18:26:26.405Z,24.26
2018-05-21T18:28:54.748Z,24.24
2018-05-21T18:31:23.976Z,24.21
2018-05-21T18:33:52.064Z,24.21
2018-05-21T18:36:20.513Z,24.21
2018-05-21T18:38:48.609Z,24.16
2018-05-21T18:54:16.722Z,24.05
2018-05-21T18:56:45.118Z,24.06
2018-05-21T18:59:13.195Z,24.05
2018-05-21T19:01:41.283Z,24.07
2018-05-21T19:04:09.414Z,24.05
2018-05-21T19:06:37.492Z,24.04
2018-05-21T19:09:06.498Z,24.01
2018-05-21T19:11:34.618Z,24.00
2018-05-21T19:14:02.751Z,23.99
2018-05-21T19:16:31.137Z,23.98
2018-05-21T19:19:00.124Z,23.93
2018-05-21T19:21:28.467Z,23.92
2018-05-21T19:24:02.170Z,23.89
2018-05-21T19:26:30.264Z,23.88
2018-05-21T19:28:59.077Z,23.88
2018-05-21T19:31:27.189Z,23.88
2018-05-21T19:33:55.285Z,23.84
2018-05-21T19:36:23.637Z,23.81
2018-05-21T19:38:51.808Z,23.77
2018-05-21T19:41:19.947Z,23.78
2018-05-21T19:43:48.084Z,23.78
2018-05-21T19:46:16.239Z,23.77
2018-05-21T19:48:44.333Z,23.74
2018-05-21T19:51:12.481Z,23.69
2018-05-21T19:53:40.632Z,23.67
2018-05-21T19:56:08.739Z,23.65
2018-05-21T19:58:36.824Z,23.61
2018-05-21T20:01:04.954Z,23.59
2018-05-21T20:03:33.037Z,23.57
2018-05-21T20:06:02.152Z,23.58
2018-05-21T20:08:30.276Z,23.57
2018-05-21T20:10:58.396Z,23.56
2018-05-21T20:13:26.498Z,23.54
2018-05-21T20:15:54.597Z,23.54
2018-05-21T20:18:32.504Z,23.51
2018-05-21T20:21:00.611Z,23.46
2018-05-21T20:23:28.712Z,23.45
2018-05-21T20:25:56.836Z,23.44
2018-05-21T20:28:25.467Z,23.44
2018-05-21T20:30:54.164Z,23.43
2018-05-21T20:33:22.268Z,23.43
2018-05-21T20:35:50.396Z,23.41
2018-05-21T20:38:19.389Z,23.37
2018-05-21T20:40:48.039Z,23.36
2018-05-21T20:43:16.165Z,23.35
2018-05-21T20:45:44.299Z,23.33
2018-05-21T20:48:12.449Z,23.29
2018-05-21T20:50:40.556Z,23.25
2018-05-21T20:53:08.624Z,23.22
2018-05-21T20:55:36.767Z,23.23
2018-05-21T20:58:04.841Z,23.21
2018-05-21T21:00:32.943Z,23.21
2018-05-21T21:03:06.556Z,23.19
2018-05-21T21:05:34.815Z,23.18
2018-05-21T21:08:02.907Z,23.16
2018-05-21T21:10:31.034Z,23.12
2018-05-21T21:12:59.134Z,23.14
2018-05-21T21:15:27.269Z,23.09
2018-05-21T21:17:55.396Z,23.09
2018-05-21T21:20:23.502Z,23.07
2018-05-21T21:22:51.627Z,23.07
2018-05-21T21:25:19.732Z,23.03
2018-05-21T21:27:48.720Z,23.03
2018-05-21T21:30:17.477Z,23.02
2018-05-21T21:32:45.622Z,22.99
2018-05-21T21:35:18.642Z,22.95
2018-05-21T21:37:47.554Z,22.94
2018-05-21T21:40:15.662Z,22.93
2018-05-21T21:42:43.752Z,22.90
2018-05-21T21:45:11.888Z,22.84
2018-05-21T21:47:39.985Z,22.81
2018-05-21T21:50:08.896Z,22.80
2018-05-21T21:52:37.004Z,22.74
2018-05-21T21:55:10.045Z,22.69
2018-05-21T21:57:38.183Z,22.63
2018-05-21T22:00:06.301Z,22.58
2018-05-21T22:02:34.404Z,22.54
2018-05-21T22:05:02.517Z,22.50
2018-05-21T22:07:30.618Z,22.49
2018-05-21T22:09:58.699Z,22.47
2018-05-21T22:12:26.814Z,22.49
2018-05-21T22:14:54.923Z,22.43
2018-05-21T22:17:23.756Z,22.36
2018-05-21T22:19:51.874Z,22.31
2018-05-21T22:22:20.315Z,22.32
2018-05-21T22:24:48.940Z,22.30
2018-05-21T22:27:17.032Z,22.29
2018-05-21T22:29:45.466Z,22.28
2018-05-21T22:32:13.583Z,22.28
2018-05-21T22:34:42.360Z,22.27
2018-05-21T22:37:10.448Z,22.27
2018-05-21T22:39:38.592Z,22.27
2018-05-21T22:42:06.698Z,22.28
2018-05-21T22:44:41.768Z,22.30
2018-05-21T22:47:09.876Z,22.32
2018-05-21T22:49:37.972Z,22.25
2018-05-21T22:52:06.817Z,22.25
2018-05-21T22:54:40.492Z,22.27
2018-05-21T22:57:08.610Z,22.24
2018-05-21T22:59:43.068Z,22.19
2018-05-21T23:02:11.856Z,22.14
2018-05-21T23:04:40.248Z,22.13
2018-05-21T23:07:08.624Z,22.09
2018-05-21T23:09:36.719Z,22.07
2018-05-21T23:12:04.848Z,22.07
2018-05-21T23:24:18.549Z,21.89
2018-05-21T23:26:46.869Z,21.89
2018-05-21T23:29:14.965Z,21.89
2018-05-21T23:31:43.072Z,21.89
2018-05-21T23:34:11.184Z,21.85
2018-05-21T23:36:45.718Z,21.83
2018-05-21T23:39:14.141Z,21.82
2018-05-21T23:41:42.231Z,21.82
2018-05-21T23:44:11.349Z,21.82
2018-05-21T23:46:39.460Z,21.79
2018-05-21T23:49:07.564Z,21.79
2018-05-21T23:51:35.869Z,21.79
2018-05-21T23:54:03.936Z,21.77
2018-05-21T23:56:32.903Z,21.76
2018-05-21T23:59:00.972Z,21.78
